createdAt,value
2016-12-31T00:00:44.690Z,18.42
2016-12-31T00:01:55.018Z,18.49
2016-12-31T00:03:05.366Z,18.43
2016-12-31T00:04:16.087Z,18.46
2016-12-31T00:05:26.426Z,18.42
2016-12-31T00:06:36.365Z,18.43
2016-12-31T00:07:46.717Z,18.43
2016-12-31T00:08:57.455Z,18.36
2016-12-31T00:10:08.192Z,18.41
2016-12-31T00:11:18.921Z,18.45
2016-12-31T00:12:29.258Z,18.36
2016-12-31T00:13:39.991Z,18.36
2016-12-31T00:14:50.743Z,18.41
2016-12-31T00:16:01.911Z,18.46
2016-12-31T00:17:11.461Z,18.42
2016-12-31T00:18:21.786Z,18.34
2016-12-31T00:19:31.718Z,18.43
2016-12-31T00:20:41.657Z,18.48
2016-12-31T00:21:52.368Z,18.46
2016-12-31T00:23:03.101Z,18.43
2016-12-31T00:24:13.037Z,18.46
2016-12-31T00:25:23.360Z,18.48
2016-12-31T00:26:34.095Z,18.34
2016-12-31T00:27:44.457Z,18.45
2016-12-31T00:28:54.771Z,18.37
2016-12-31T00:30:05.095Z,18.48
2016-12-31T00:31:15.421Z,18.43
2016-12-31T00:32:26.131Z,18.45
2016-12-31T00:33:36.467Z,18.45
2016-12-31T00:34:46.797Z,18.42
2016-12-31T00:35:57.124Z,18.41
2016-12-31T00:37:07.452Z,18.49
2016-12-31T00:38:18.179Z,18.36
2016-12-31T00:39:28.538Z,18.48
2016-12-31T00:40:38.855Z,18.45
2016-12-31T00:41:49.181Z,18.43
2016-12-31T00:42:59.920Z,18.46
2016-12-31T00:44:09.840Z,18.43
2016-12-31T00:45:20.614Z,18.45
2016-12-31T00:46:31.332Z,18.43
2016-12-31T00:47:42.045Z,18.43
2016-12-31T00:48:52.413Z,18.45
2016-12-31T00:50:02.740Z,18.42
2016-12-31T00:51:13.071Z,18.42
2016-12-31T00:52:23.492Z,18.34
2016-12-31T00:53:33.041Z,18.43
2016-12-31T00:54:43.270Z,18.45
2016-12-31T00:55:53.984Z,18.43
2016-12-31T00:57:03.902Z,18.45
2016-12-31T00:58:14.224Z,18.36
2016-12-31T00:59:24.938Z,18.45
2016-12-31T01:00:35.655Z,18.46
2016-12-31T01:01:45.981Z,18.45
2016-12-31T01:02:55.514Z,18.43
2016-12-31T01:04:05.453Z,18.42
2016-12-31T01:05:15.767Z,18.41
2016-12-31T01:06:26.481Z,18.48
2016-12-31T01:07:36.816Z,18.36
2016-12-31T01:08:47.149Z,18.49
2016-12-31T01:09:57.875Z,18.36
2016-12-31T01:11:08.596Z,18.37
2016-12-31T01:12:19.329Z,18.36
2016-12-31T01:13:30.043Z,18.42
2016-12-31T01:14:40.356Z,18.43
2016-12-31T01:15:51.078Z,18.37
2016-12-31T01:17:00.603Z,18.36
2016-12-31T01:18:11.316Z,18.36
2016-12-31T01:19:21.646Z,18.37
2016-12-31T01:20:31.968Z,18.34
2016-12-31T01:21:41.899Z,18.42
2016-12-31T01:22:52.212Z,18.36
2016-12-31T01:24:02.142Z,18.43
2016-12-31T01:25:12.849Z,18.37
2016-12-31T01:26:23.566Z,18.39
2016-12-31T01:27:33.885Z,18.45
2016-12-31T01:28:44.632Z,18.42
2016-12-31T01:29:55.339Z,18.46
2016-12-31T01:31:05.672Z,18.37
2016-12-31T01:32:16.397Z,18.41
2016-12-31T01:33:27.213Z,18.33
2016-12-31T01:34:37.531Z,18.36
2016-12-31T01:35:47.851Z,18.48
2016-12-31T01:36:57.777Z,18.45
2016-12-31T01:38:08.124Z,18.45
2016-12-31T01:39:18.452Z,18.37
2016-12-31T01:40:29.172Z,18.37
2016-12-31T01:41:39.102Z,18.48
2016-12-31T01:42:49.425Z,18.36
2016-12-31T01:43:59.742Z,18.41
2016-12-31T01:45:10.053Z,18.45
2016-12-31T01:46:19.970Z,18.41
2016-12-31T01:47:30.679Z,18.42
2016-12-31T01:48:41.419Z,18.34
2016-12-31T01:49:52.139Z,18.36
2016-12-31T01:51:02.073Z,18.34
2016-12-31T01:52:12.833Z,18.37
2016-12-31T01:53:23.560Z,18.34
2016-12-31T01:54:33.879Z,18.37
2016-12-31T01:55:44.206Z,18.36
2016-12-31T01:56:54.119Z,18.36
2016-12-31T01:58:04.449Z,18.37
2016-12-31T01:59:14.769Z,18.33
2016-12-31T02:00:25.083Z,18.33
2016-12-31T02:01:35.796Z,18.31
2016-12-31T02:02:46.511Z,18.36
2016-12-31T02:03:56.836Z,18.36
2016-12-31T02:05:07.165Z,18.36
2016-12-31T02:06:17.879Z,18.36
2016-12-31T02:07:28.602Z,18.33
2016-12-31T02:08:38.923Z,18.36
2016-12-31T02:09:49.471Z,18.37
2016-12-31T02:10:59.415Z,18.42
2016-12-31T02:12:09.749Z,18.46
2016-12-31T02:13:20.113Z,18.36
2016-12-31T02:14:30.422Z,18.36
2016-12-31T02:15:40.743Z,18.43
2016-12-31T02:16:50.660Z,18.36
2016-12-31T02:18:01.373Z,18.34
2016-12-31T02:19:11.700Z,18.33
2016-12-31T02:20:22.420Z,18.31
2016-12-31T02:21:33.138Z,18.36
2016-12-31T02:22:43.566Z,18.36
2016-12-31T02:23:54.282Z,18.36
2016-12-31T02:25:04.606Z,18.37
2016-12-31T02:26:14.932Z,18.39
2016-12-31T02:27:25.665Z,18.41
2016-12-31T02:28:35.975Z,18.37
2016-12-31T02:29:46.718Z,18.33
2016-12-31T02:30:56.248Z,18.39
2016-12-31T02:32:05.793Z,18.33
2016-12-31T02:33:16.507Z,18.31
2016-12-31T02:34:26.836Z,18.33
2016-12-31T02:35:37.168Z,18.36
2016-12-31T02:36:47.482Z,18.37
2016-12-31T02:37:58.206Z,18.43
2016-12-31T02:39:08.526Z,18.39
2016-12-31T02:40:18.846Z,18.39
2016-12-31T02:41:29.169Z,18.39
2016-12-31T02:42:39.879Z,18.42
2016-12-31T02:43:50.190Z,18.31
2016-12-31T02:45:00.516Z,18.36
2016-12-31T02:46:10.836Z,18.39
2016-12-31T02:47:21.549Z,18.41
2016-12-31T02:48:31.476Z,18.36
2016-12-31T02:49:41.799Z,18.39
2016-12-31T02:50:52.519Z,18.37
2016-12-31T02:52:02.826Z,18.34
2016-12-31T02:53:13.540Z,18.39
2016-12-31T02:54:24.247Z,18.34
2016-12-31T02:55:34.567Z,18.36
2016-12-31T02:56:44.538Z,18.42
2016-12-31T02:57:54.122Z,18.36
2016-12-31T02:59:04.439Z,18.41
2016-12-31T03:00:14.362Z,18.37
2016-12-31T03:01:24.288Z,18.31
2016-12-31T03:02:35.004Z,18.36
2016-12-31T03:03:45.757Z,18.41
2016-12-31T03:04:55.683Z,18.41
2016-12-31T03:06:05.995Z,18.34
2016-12-31T03:07:16.304Z,18.39
2016-12-31T03:08:27.018Z,18.3
2016-12-31T03:09:36.941Z,18.39
2016-12-31T03:10:47.271Z,18.33
2016-12-31T03:11:57.586Z,18.28
2016-12-31T03:13:08.294Z,18.39
2016-12-31T03:14:18.234Z,18.39
2016-12-31T03:15:28.557Z,18.37
2016-12-31T03:16:39.287Z,18.41
2016-12-31T03:17:49.613Z,18.31
2016-12-31T03:19:00.326Z,18.41
2016-12-31T03:20:10.256Z,18.37
2016-12-31T03:21:20.977Z,18.39
2016-12-31T03:22:31.296Z,18.3
2016-12-31T03:23:41.229Z,18.36
2016-12-31T03:24:51.932Z,18.3
2016-12-31T03:26:02.659Z,18.37
2016-12-31T03:27:12.995Z,18.34
2016-12-31T03:28:23.708Z,18.45
2016-12-31T03:29:34.409Z,18.34
2016-12-31T03:30:44.332Z,18.36
2016-12-31T03:31:53.856Z,18.34
2016-12-31T03:33:04.576Z,18.37
2016-12-31T03:34:14.098Z,18.39
2016-12-31T03:35:24.019Z,18.43
2016-12-31T03:36:34.721Z,18.34
2016-12-31T03:37:45.427Z,18.41
2016-12-31T03:38:55.776Z,18.39
2016-12-31T03:40:06.105Z,18.33
2016-12-31T03:41:16.470Z,18.39
2016-12-31T03:42:26.397Z,18.36
2016-12-31T03:43:35.923Z,18.37
2016-12-31T03:44:46.650Z,18.41
2016-12-31T03:45:56.592Z,18.45
2016-12-31T03:47:06.906Z,18.36
2016-12-31T03:48:17.223Z,18.49
2016-12-31T03:49:27.933Z,18.49
2016-12-31T03:50:38.308Z,18.41
2016-12-31T03:51:49.057Z,18.39
2016-12-31T03:52:59.771Z,18.49
2016-12-31T03:54:09.690Z,18.36
2016-12-31T03:55:20.411Z,18.37
2016-12-31T03:56:30.753Z,18.39
2016-12-31T03:57:41.505Z,18.36
2016-12-31T03:58:51.822Z,18.48
2016-12-31T04:00:02.139Z,18.46
2016-12-31T04:01:12.459Z,18.3
2016-12-31T04:02:22.391Z,18.48
2016-12-31T04:03:33.144Z,18.34
2016-12-31T04:04:43.464Z,18.33
2016-12-31T04:05:53.406Z,18.45
2016-12-31T04:07:03.720Z,18.37
2016-12-31T04:08:14.040Z,18.37
2016-12-31T04:09:24.747Z,18.48
2016-12-31T04:10:35.058Z,18.39
2016-12-31T04:11:45.391Z,18.39
2016-12-31T04:12:55.304Z,18.36
2016-12-31T04:14:06.024Z,18.46
2016-12-31T04:15:15.940Z,18.39
2016-12-31T04:16:26.252Z,18.36
2016-12-31T04:17:36.165Z,18.31
2016-12-31T04:18:46.085Z,18.39
2016-12-31T04:19:56.418Z,18.39
2016-12-31T04:21:06.359Z,18.36
2016-12-31T04:22:17.072Z,18.31
2016-12-31T04:23:26.607Z,18.39
2016-12-31T04:24:35.733Z,18.39
2016-12-31T04:25:46.454Z,18.48
2016-12-31T04:26:57.161Z,18.34
2016-12-31T04:28:07.877Z,18.36
2016-12-31T04:29:18.226Z,18.37
2016-12-31T04:30:28.143Z,18.39
2016-12-31T04:31:38.453Z,18.36
2016-12-31T04:32:48.786Z,18.45
2016-12-31T04:33:58.712Z,18.41
2016-12-31T04:35:09.423Z,18.43
2016-12-31T04:36:19.755Z,18.42
2016-12-31T04:37:29.681Z,18.36
2016-12-31T04:38:39.204Z,18.34
2016-12-31T04:39:49.914Z,18.49
2016-12-31T04:41:00.628Z,18.37
2016-12-31T04:42:11.332Z,18.45
2016-12-31T04:43:21.642Z,18.45
2016-12-31T04:44:32.356Z,18.31
2016-12-31T04:45:42.278Z,18.37
2016-12-31T04:46:52.595Z,18.33
2016-12-31T04:48:03.331Z,18.39
2016-12-31T04:49:12.861Z,18.41
2016-12-31T04:50:23.575Z,18.39
2016-12-31T04:51:34.285Z,18.37
2016-12-31T04:52:44.607Z,18.41
2016-12-31T04:53:54.928Z,18.39
2016-12-31T04:55:05.261Z,18.3
2016-12-31T04:56:15.171Z,18.33
2016-12-31T04:57:25.485Z,18.36
2016-12-31T04:58:35.801Z,18.3
2016-12-31T04:59:45.721Z,18.36
2016-12-31T05:00:55.664Z,18.42
2016-12-31T05:02:06.377Z,18.33
2016-12-31T05:03:17.193Z,18.41
2016-12-31T05:04:27.110Z,18.36
2016-12-31T05:05:37.814Z,18.36
2016-12-31T05:06:47.444Z,18.41
2016-12-31T05:07:58.157Z,18.34
2016-12-31T05:09:08.908Z,18.36
2016-12-31T05:10:19.618Z,18.41
2016-12-31T05:11:29.932Z,18.34
2016-12-31T05:12:40.252Z,18.27
2016-12-31T05:13:50.969Z,18.37
2016-12-31T05:15:01.683Z,18.37
2016-12-31T05:16:11.987Z,18.31
2016-12-31T05:17:22.732Z,18.28
2016-12-31T05:18:33.458Z,18.48
2016-12-31T05:19:43.788Z,18.33
2016-12-31T05:20:53.312Z,18.37
2016-12-31T05:22:03.237Z,18.39
2016-12-31T05:23:13.948Z,18.39
2016-12-31T05:24:24.664Z,18.45
2016-12-31T05:25:35.375Z,18.34
2016-12-31T05:26:44.907Z,18.45
2016-12-31T05:27:55.652Z,18.36
2016-12-31T05:29:06.361Z,18.3
2016-12-31T05:30:16.680Z,18.34
2016-12-31T05:31:26.603Z,18.34
2016-12-31T05:32:36.962Z,18.31
2016-12-31T05:33:47.772Z,18.36
2016-12-31T05:34:57.701Z,18.31
2016-12-31T05:36:08.023Z,18.34
2016-12-31T05:37:18.341Z,18.39
2016-12-31T05:38:28.270Z,18.39
2016-12-31T05:39:39.233Z,18.33
2016-12-31T05:40:49.950Z,18.27
2016-12-31T05:42:00.284Z,18.41
2016-12-31T05:43:11.031Z,18.41
2016-12-31T05:44:20.957Z,18.39
2016-12-31T05:45:31.275Z,18.45
2016-12-31T05:46:41.222Z,18.36
2016-12-31T05:47:51.933Z,18.45
2016-12-31T05:49:02.651Z,18.37
2016-12-31T05:50:12.963Z,18.39
2016-12-31T05:51:23.686Z,18.41
2016-12-31T05:52:34.409Z,18.39
2016-12-31T05:53:44.329Z,18.39
2016-12-31T05:54:54.254Z,18.37
2016-12-31T05:56:04.573Z,18.34
2016-12-31T05:57:15.284Z,18.34
2016-12-31T05:58:25.605Z,18.34
2016-12-31T05:59:35.925Z,18.34
2016-12-31T06:00:46.251Z,18.34
2016-12-31T06:01:56.176Z,18.36
2016-12-31T06:03:06.518Z,18.26
2016-12-31T06:04:16.439Z,18.34
2016-12-31T06:05:25.965Z,18.37
2016-12-31T06:06:36.685Z,18.33
2016-12-31T06:07:47.420Z,18.41
2016-12-31T06:08:57.743Z,18.36
2016-12-31T06:10:08.454Z,18.33
2016-12-31T06:11:18.786Z,18.31
2016-12-31T06:12:29.497Z,18.34
2016-12-31T06:13:39.820Z,18.36
2016-12-31T06:14:49.737Z,18.3
2016-12-31T06:16:00.043Z,18.31
2016-12-31T06:17:10.357Z,18.36
2016-12-31T06:18:21.070Z,18.36
2016-12-31T06:19:31.781Z,18.34
2016-12-31T06:20:41.701Z,18.36
2016-12-31T06:21:52.402Z,18.34
2016-12-31T06:23:02.728Z,18.39
2016-12-31T06:24:12.645Z,18.34
2016-12-31T06:25:23.042Z,18.39
2016-12-31T06:26:33.359Z,18.39
2016-12-31T06:27:43.685Z,18.41
2016-12-31T06:28:54.405Z,18.37
2016-12-31T06:30:05.212Z,18.39
2016-12-31T06:31:15.916Z,18.39
2016-12-31T06:32:25.838Z,18.36
2016-12-31T06:33:36.559Z,18.36
2016-12-31T06:34:46.610Z,18.36
2016-12-31T06:35:56.540Z,18.41
2016-12-31T06:37:06.459Z,18.37
2016-12-31T06:38:17.172Z,18.37
2016-12-31T06:39:27.509Z,18.36
2016-12-31T06:40:37.834Z,18.39
2016-12-31T06:41:48.158Z,18.33
2016-12-31T06:42:58.475Z,18.37
2016-12-31T06:44:09.189Z,18.36
2016-12-31T06:45:19.496Z,18.39
2016-12-31T06:46:29.806Z,18.3
2016-12-31T06:47:40.120Z,18.27
2016-12-31T06:48:50.911Z,18.34
2016-12-31T06:50:01.230Z,18.36
2016-12-31T06:51:11.544Z,18.36
2016-12-31T06:52:21.474Z,18.37
2016-12-31T06:53:31.409Z,18.36
2016-12-31T06:54:41.774Z,18.39
2016-12-31T06:55:52.282Z,18.41
2016-12-31T06:57:03.042Z,18.37
2016-12-31T06:58:13.361Z,18.34
2016-12-31T06:59:23.781Z,18.41
2016-12-31T07:00:34.140Z,18.31
2016-12-31T07:01:44.850Z,18.37
2016-12-31T07:02:55.568Z,18.33
2016-12-31T07:04:05.493Z,18.33
2016-12-31T07:05:16.245Z,18.36
2016-12-31T07:06:26.966Z,18.41
2016-12-31T07:07:36.882Z,18.36
2016-12-31T07:08:46.837Z,18.31
2016-12-31T07:09:57.611Z,18.34
2016-12-31T07:11:07.920Z,18.41
2016-12-31T07:12:17.846Z,18.41
2016-12-31T07:13:28.150Z,18.37
2016-12-31T07:14:38.853Z,18.42
2016-12-31T07:15:49.579Z,18.41
2016-12-31T07:16:59.500Z,18.36
2016-12-31T07:18:09.817Z,18.39
2016-12-31T07:19:19.750Z,18.37
2016-12-31T07:20:30.447Z,18.28
2016-12-31T07:21:41.224Z,18.34
2016-12-31T07:22:51.565Z,18.43
2016-12-31T07:24:02.272Z,18.37
2016-12-31T07:25:12.627Z,18.34
2016-12-31T07:26:22.582Z,18.39
2016-12-31T07:27:32.893Z,18.36
2016-12-31T07:28:42.816Z,18.34
2016-12-31T07:29:52.743Z,18.45
2016-12-31T07:31:03.459Z,18.39
2016-12-31T07:32:14.173Z,18.34
2016-12-31T07:33:24.686Z,18.33
2016-12-31T07:34:34.997Z,18.31
2016-12-31T07:35:44.917Z,18.42
2016-12-31T07:36:54.849Z,18.39
2016-12-31T07:38:05.171Z,18.39
2016-12-31T07:39:15.888Z,18.37
2016-12-31T07:40:26.607Z,18.36
2016-12-31T07:41:36.922Z,18.36
2016-12-31T07:42:46.443Z,18.37
2016-12-31T07:43:57.163Z,18.31
2016-12-31T07:45:07.484Z,18.48
2016-12-31T07:46:17.408Z,18.39
2016-12-31T07:47:27.421Z,18.42
2016-12-31T07:48:37.342Z,18.39
2016-12-31T07:49:47.269Z,18.39
2016-12-31T07:50:56.794Z,18.36
2016-12-31T07:52:05.940Z,18.34
2016-12-31T07:53:15.467Z,18.34
2016-12-31T07:54:26.198Z,18.36
2016-12-31T07:55:36.913Z,18.37
2016-12-31T07:56:47.234Z,18.48
2016-12-31T07:57:57.951Z,18.34
2016-12-31T07:59:08.342Z,18.34
2016-12-31T08:00:19.042Z,18.45
2016-12-31T08:01:28.988Z,18.34
2016-12-31T08:02:38.926Z,18.36
2016-12-31T08:03:49.244Z,18.24
2016-12-31T08:04:58.825Z,18.41
2016-12-31T08:06:09.542Z,18.37
2016-12-31T08:07:19.876Z,18.36
2016-12-31T08:08:30.599Z,18.3
2016-12-31T08:09:40.912Z,18.28
2016-12-31T08:10:51.633Z,18.34
2016-12-31T08:12:01.950Z,18.39
2016-12-31T08:13:12.268Z,18.48
2016-12-31T08:14:22.180Z,18.39
2016-12-31T08:15:32.523Z,18.45
2016-12-31T08:16:42.839Z,18.45
2016-12-31T08:17:53.566Z,18.36
2016-12-31T08:19:04.274Z,18.51
2016-12-31T08:20:14.589Z,18.39
2016-12-31T08:21:24.908Z,18.34
2016-12-31T08:22:35.240Z,18.43
2016-12-31T08:23:45.971Z,18.36
2016-12-31T08:24:56.287Z,18.37
2016-12-31T08:26:06.604Z,18.36
2016-12-31T08:27:16.526Z,18.41
2016-12-31T08:28:26.448Z,18.37
2016-12-31T08:29:35.587Z,18.36
2016-12-31T08:30:46.304Z,18.28
2016-12-31T08:31:57.120Z,18.33
2016-12-31T08:33:07.827Z,18.36
2016-12-31T08:34:17.408Z,18.36
2016-12-31T08:35:27.738Z,18.41
2016-12-31T08:36:38.055Z,18.37
2016-12-31T08:37:48.768Z,18.41
2016-12-31T08:38:58.724Z,18.39
2016-12-31T08:40:09.063Z,18.33
2016-12-31T08:41:18.584Z,18.41
2016-12-31T08:42:28.510Z,18.36
2016-12-31T08:43:38.830Z,18.41
2016-12-31T08:44:49.544Z,18.41
2016-12-31T08:45:59.867Z,18.39
2016-12-31T08:47:10.580Z,18.36
2016-12-31T08:48:21.304Z,18.39
2016-12-31T08:49:32.018Z,18.39
2016-12-31T08:50:42.339Z,18.43
2016-12-31T08:51:52.655Z,18.43
2016-12-31T08:53:03.381Z,18.49
2016-12-31T08:54:14.092Z,18.37
2016-12-31T08:55:23.219Z,18.34
2016-12-31T08:56:33.538Z,18.33
2016-12-31T08:57:44.252Z,18.34
2016-12-31T08:58:54.176Z,18.39
2016-12-31T09:00:04.495Z,18.39
2016-12-31T09:01:15.209Z,18.39
2016-12-31T09:02:25.929Z,18.37
2016-12-31T09:03:36.245Z,18.36
2016-12-31T09:04:46.583Z,18.34
2016-12-31T09:05:57.308Z,18.34
2016-12-31T09:07:07.626Z,18.31
2016-12-31T09:08:17.955Z,18.39
2016-12-31T09:09:27.910Z,18.36
2016-12-31T09:10:37.433Z,18.37
2016-12-31T09:11:47.756Z,18.39
2016-12-31T09:12:58.477Z,18.34
2016-12-31T09:14:09.188Z,18.34
2016-12-31T09:15:19.517Z,18.42
2016-12-31T09:16:30.221Z,18.34
2016-12-31T09:17:39.764Z,18.36
2016-12-31T09:18:49.693Z,18.34
2016-12-31T09:20:00.013Z,18.36
2016-12-31T09:21:10.364Z,18.39
2016-12-31T09:22:20.685Z,18.34
2016-12-31T09:23:31.008Z,18.37
2016-12-31T09:24:41.351Z,18.36
2016-12-31T09:25:51.695Z,18.34
2016-12-31T09:27:02.423Z,18.45
2016-12-31T09:28:12.749Z,18.41
2016-12-31T09:29:22.718Z,18.36
2016-12-31T09:30:33.069Z,18.36
2016-12-31T09:31:43.793Z,18.37
2016-12-31T09:32:54.618Z,18.37
2016-12-31T09:34:04.145Z,18.36
2016-12-31T09:35:14.864Z,18.36
2016-12-31T09:36:25.575Z,18.45
2016-12-31T09:37:35.946Z,18.33
2016-12-31T09:38:46.266Z,18.33
2016-12-31T09:39:56.612Z,18.34
2016-12-31T09:41:06.535Z,18.42
2016-12-31T09:42:17.258Z,18.42
2016-12-31T09:43:27.972Z,18.37
2016-12-31T09:44:38.698Z,18.46
2016-12-31T09:45:49.015Z,18.37
2016-12-31T09:46:59.731Z,18.37
2016-12-31T09:48:10.442Z,18.37
2016-12-31T09:49:20.778Z,18.37
2016-12-31T09:50:31.510Z,18.43
2016-12-31T09:51:41.446Z,18.43
2016-12-31T09:52:52.169Z,18.42
2016-12-31T09:54:02.881Z,18.34
2016-12-31T09:55:12.818Z,18.37
2016-12-31T09:56:23.154Z,18.42
2016-12-31T09:57:33.480Z,18.43
2016-12-31T09:58:44.232Z,18.42
2016-12-31T09:59:54.952Z,18.36
2016-12-31T10:01:05.752Z,18.41
2016-12-31T10:02:16.072Z,18.45
2016-12-31T10:03:26.437Z,18.43
2016-12-31T10:04:36.366Z,18.41
2016-12-31T10:05:46.689Z,18.41
2016-12-31T10:06:57.416Z,18.48
2016-12-31T10:08:08.133Z,18.45
2016-12-31T10:09:18.459Z,18.42
2016-12-31T10:10:28.791Z,18.43
2016-12-31T10:11:39.521Z,18.46
2016-12-31T10:12:50.295Z,18.45
2016-12-31T10:14:00.618Z,18.46
2016-12-31T10:15:10.962Z,18.52
2016-12-31T10:16:21.693Z,18.42
2016-12-31T10:17:31.623Z,18.43
2016-12-31T10:18:41.943Z,18.45
2016-12-31T10:19:52.272Z,18.43
2016-12-31T10:21:02.596Z,18.42
2016-12-31T10:22:13.318Z,18.46
2016-12-31T10:23:24.035Z,18.43
2016-12-31T10:24:34.378Z,18.45
2016-12-31T10:25:44.713Z,18.42
2016-12-31T10:26:55.443Z,18.46
2016-12-31T10:28:05.760Z,18.46
2016-12-31T10:29:16.481Z,18.45
2016-12-31T10:30:27.206Z,18.49
2016-12-31T10:31:36.772Z,18.43
2016-12-31T10:32:47.487Z,18.48
2016-12-31T10:33:57.872Z,18.43
2016-12-31T10:35:08.617Z,18.48
2016-12-31T10:36:18.934Z,18.46
2016-12-31T10:37:28.854Z,18.51
2016-12-31T10:38:39.584Z,18.45
2016-12-31T10:39:50.304Z,18.49
2016-12-31T10:41:00.249Z,18.49
2016-12-31T10:42:10.592Z,18.46
2016-12-31T10:43:20.543Z,18.49
2016-12-31T10:44:30.896Z,18.42
2016-12-31T10:45:41.622Z,18.49
2016-12-31T10:46:52.336Z,18.48
2016-12-31T10:48:02.656Z,18.52
2016-12-31T10:49:12.985Z,18.52
2016-12-31T10:50:23.718Z,18.48
2016-12-31T10:51:33.677Z,18.52
2016-12-31T10:52:44.406Z,18.48
2016-12-31T10:53:54.771Z,18.49
2016-12-31T10:55:04.714Z,18.48
2016-12-31T10:56:15.450Z,18.49
2016-12-31T10:57:26.188Z,18.45
2016-12-31T10:58:36.111Z,18.48
2016-12-31T10:59:46.048Z,18.48
2016-12-31T11:00:55.983Z,18.51
2016-12-31T11:02:05.910Z,18.48
2016-12-31T11:03:15.841Z,18.48
2016-12-31T11:04:26.306Z,18.53
2016-12-31T11:05:35.836Z,18.49
2016-12-31T11:06:45.802Z,18.52
2016-12-31T11:07:56.130Z,18.49
2016-12-31T11:09:06.853Z,18.51
2016-12-31T11:10:17.177Z,18.55
2016-12-31T11:11:27.506Z,18.46
2016-12-31T11:12:37.839Z,18.49
2016-12-31T11:13:48.575Z,18.58
2016-12-31T11:14:59.301Z,18.46
2016-12-31T11:16:10.032Z,18.49
2016-12-31T11:17:20.382Z,18.52
2016-12-31T11:18:30.319Z,18.48
2016-12-31T11:19:40.651Z,18.53
2016-12-31T11:20:50.982Z,18.46
2016-12-31T11:22:01.691Z,18.53
2016-12-31T11:23:12.411Z,18.52
2016-12-31T11:24:23.288Z,18.58
2016-12-31T11:25:33.643Z,18.51
2016-12-31T11:26:44.357Z,18.57
2016-12-31T11:27:54.692Z,18.46
2016-12-31T11:29:04.267Z,18.45
2016-12-31T11:30:14.603Z,18.46
2016-12-31T11:31:24.942Z,18.51
2016-12-31T11:32:35.270Z,18.53
2016-12-31T11:33:45.608Z,18.46
2016-12-31T11:34:56.334Z,18.49
2016-12-31T11:36:07.045Z,18.49
2016-12-31T11:37:17.777Z,18.57
2016-12-31T11:38:28.119Z,18.52
2016-12-31T11:39:38.842Z,18.53
2016-12-31T11:40:49.559Z,18.49
2016-12-31T11:41:59.898Z,18.57
2016-12-31T11:43:10.635Z,18.45
2016-12-31T11:44:20.959Z,18.57
2016-12-31T11:45:30.887Z,18.55
2016-12-31T11:46:41.220Z,18.58
2016-12-31T11:47:50.368Z,18.48
2016-12-31T11:49:01.082Z,18.57
2016-12-31T11:50:11.808Z,18.51
2016-12-31T11:51:22.557Z,18.51
2016-12-31T11:52:33.293Z,18.51
2016-12-31T11:53:43.613Z,18.53
2016-12-31T11:54:53.936Z,18.53
2016-12-31T11:56:03.474Z,18.58
2016-12-31T11:57:13.827Z,18.48
2016-12-31T11:58:24.173Z,18.57
2016-12-31T11:59:34.133Z,18.57
2016-12-31T12:00:44.128Z,18.48
2016-12-31T12:01:54.080Z,18.6
2016-12-31T12:03:04.812Z,18.55
2016-12-31T12:04:15.155Z,18.6
2016-12-31T12:05:25.890Z,18.57
2016-12-31T12:06:36.682Z,18.52
2016-12-31T12:07:47.036Z,18.55
2016-12-31T12:08:57.395Z,18.57
2016-12-31T12:10:07.350Z,18.57
2016-12-31T12:11:17.712Z,18.55
2016-12-31T12:12:28.038Z,18.49
2016-12-31T12:13:37.180Z,18.57
2016-12-31T12:14:47.500Z,18.55
2016-12-31T12:15:57.832Z,18.55
2016-12-31T12:17:08.162Z,18.6
2016-12-31T12:18:18.103Z,18.57
2016-12-31T12:19:28.821Z,18.57
2016-12-31T12:20:39.171Z,18.57
2016-12-31T12:21:49.129Z,18.58
2016-12-31T12:22:59.065Z,18.57
2016-12-31T12:24:09.833Z,18.55
2016-12-31T12:25:20.153Z,18.48
2016-12-31T12:26:30.872Z,18.52
2016-12-31T12:27:41.612Z,18.53
2016-12-31T12:28:50.764Z,18.55
2016-12-31T12:30:01.492Z,18.57
2016-12-31T12:31:11.427Z,18.45
2016-12-31T12:32:22.136Z,18.55
2016-12-31T12:33:32.846Z,18.61
2016-12-31T12:34:43.676Z,18.52
2016-12-31T12:35:54.424Z,18.6
2016-12-31T12:37:04.753Z,18.58
2016-12-31T12:38:15.074Z,18.55
2016-12-31T12:39:25.403Z,18.53
2016-12-31T12:40:35.738Z,18.55
2016-12-31T12:41:46.469Z,18.58
2016-12-31T12:42:57.305Z,18.58
2016-12-31T12:44:07.241Z,18.55
2016-12-31T12:45:17.583Z,18.55
2016-12-31T12:46:28.084Z,18.55
2016-12-31T12:47:38.411Z,18.61
2016-12-31T12:48:49.160Z,18.58
2016-12-31T12:49:59.932Z,18.6
2016-12-31T12:51:10.453Z,18.6
2016-12-31T12:52:20.860Z,18.53
2016-12-31T12:53:31.749Z,18.6
2016-12-31T12:54:41.340Z,18.61
2016-12-31T12:55:51.724Z,18.58
2016-12-31T12:57:01.678Z,18.6
2016-12-31T12:58:12.549Z,18.58
2016-12-31T12:59:22.658Z,18.6
2016-12-31T13:00:32.665Z,18.57
2016-12-31T13:01:43.064Z,18.63
2016-12-31T13:02:53.829Z,18.6
2016-12-31T13:04:04.159Z,18.58
2016-12-31T13:05:14.923Z,18.6
2016-12-31T13:06:25.410Z,18.6
2016-12-31T13:07:36.218Z,18.53
2016-12-31T13:08:46.710Z,18.61
2016-12-31T13:09:57.630Z,18.64
2016-12-31T13:11:08.408Z,18.57
2016-12-31T13:12:18.212Z,18.6
2016-12-31T13:13:29.020Z,18.6
2016-12-31T13:14:40.072Z,18.6
2016-12-31T13:15:50.539Z,18.6
2016-12-31T13:17:01.026Z,18.55
2016-12-31T13:18:11.982Z,18.58
2016-12-31T13:19:22.472Z,18.58
2016-12-31T13:20:33.496Z,18.58
2016-12-31T13:21:43.981Z,18.58
2016-12-31T13:22:54.836Z,18.55
2016-12-31T13:24:04.468Z,18.58
2016-12-31T13:25:15.028Z,18.6
2016-12-31T13:26:25.933Z,18.53
2016-12-31T13:27:36.746Z,18.6
2016-12-31T13:28:47.559Z,18.57
2016-12-31T13:29:57.904Z,18.61
2016-12-31T13:31:08.012Z,18.58
2016-12-31T13:32:18.405Z,18.58
2016-12-31T13:33:29.472Z,18.6
2016-12-31T13:34:39.475Z,18.66
2016-12-31T13:35:50.800Z,18.58
2016-12-31T13:37:01.700Z,18.58
2016-12-31T13:38:12.752Z,18.55
2016-12-31T13:39:24.195Z,18.53
2016-12-31T13:40:34.800Z,18.6
2016-12-31T13:41:45.463Z,18.61
2016-12-31T13:42:56.416Z,18.58
2016-12-31T13:44:07.570Z,18.61
2016-12-31T13:45:18.647Z,18.58
2016-12-31T13:46:29.463Z,18.61
2016-12-31T13:47:40.677Z,18.58
2016-12-31T13:48:51.597Z,18.58
2016-12-31T13:50:03.293Z,18.6
2016-12-31T13:51:14.618Z,18.6
2016-12-31T13:52:25.520Z,18.57
2016-12-31T13:53:36.797Z,18.63
2016-12-31T13:54:47.780Z,18.61
2016-12-31T13:55:58.849Z,18.6
2016-12-31T13:57:09.817Z,18.6
2016-12-31T13:58:21.101Z,18.6
2016-12-31T13:59:32.231Z,18.58
2016-12-31T14:00:43.306Z,18.6
2016-12-31T14:01:53.380Z,18.63
2016-12-31T14:03:04.499Z,18.6
2016-12-31T14:04:15.700Z,18.6
2016-12-31T14:05:26.472Z,18.53
2016-12-31T14:06:37.646Z,18.58
2016-12-31T14:07:48.532Z,18.55
2016-12-31T14:08:59.834Z,18.61
2016-12-31T14:10:10.777Z,18.63
2016-12-31T14:11:21.893Z,18.58
2016-12-31T14:12:32.765Z,18.58
2016-12-31T14:13:44.229Z,18.57
2016-12-31T14:14:54.264Z,18.58
2016-12-31T14:16:04.569Z,18.57
2016-12-31T14:17:15.016Z,18.58
2016-12-31T14:18:25.763Z,18.52
2016-12-31T14:19:36.879Z,18.55
2016-12-31T14:20:47.154Z,18.57
2016-12-31T14:21:58.300Z,18.55
2016-12-31T14:23:08.919Z,18.63
2016-12-31T14:24:19.334Z,18.61
2016-12-31T14:25:30.343Z,18.57
2016-12-31T14:26:41.186Z,18.53
2016-12-31T14:27:52.486Z,18.55
2016-12-31T14:29:02.988Z,18.6
2016-12-31T14:30:13.330Z,18.57
2016-12-31T14:31:24.246Z,18.57
2016-12-31T14:32:35.752Z,18.55
2016-12-31T14:33:46.546Z,18.6
2016-12-31T14:34:57.616Z,18.58
2016-12-31T14:36:08.499Z,18.6
2016-12-31T14:37:18.655Z,18.6
2016-12-31T14:38:28.978Z,18.63
2016-12-31T14:39:39.404Z,18.61
2016-12-31T14:40:49.475Z,18.55
2016-12-31T14:41:59.845Z,18.61
2016-12-31T14:43:09.860Z,18.66
2016-12-31T14:44:20.732Z,18.63
2016-12-31T14:45:30.695Z,18.58
2016-12-31T14:46:41.539Z,18.6
2016-12-31T14:47:52.375Z,18.58
2016-12-31T14:49:03.033Z,18.6
2016-12-31T14:50:13.505Z,18.55
2016-12-31T14:51:24.174Z,18.61
2016-12-31T14:52:34.279Z,18.58
2016-12-31T14:53:44.823Z,18.58
2016-12-31T14:54:55.448Z,18.58
2016-12-31T14:56:06.077Z,18.58
2016-12-31T14:57:16.965Z,18.57
2016-12-31T14:58:27.428Z,18.58
2016-12-31T14:59:38.342Z,18.57
2016-12-31T15:00:49.505Z,18.58
2016-12-31T15:02:00.644Z,18.64
2016-12-31T15:03:11.839Z,18.58
2016-12-31T15:04:22.217Z,18.64
2016-12-31T15:05:33.369Z,18.55
2016-12-31T15:06:43.712Z,18.58
2016-12-31T15:07:54.918Z,18.61
2016-12-31T15:09:05.534Z,18.55